sensor_id;sensor_type;location;lat;lon;timestamp;temperature;humidity
51615;DHT22;37695;52.960;6.188;2023-03-01T00:01:28;-0.80;99.90
51615;DHT22;37695;52.960;6.188;2023-03-01T00:03:54;-0.70;99.90
51615;DHT22;37695;52.960;6.188;2023-03-01T00:06:20;-0.70;99.90
51615;DHT22;37695;52.960;6.188;2023-03-01T00:08:47;-0.60;99.90
51615;DHT22;37695;52.960;6.188;2023-03-01T00:13:42;-0.70;99.90
51615;DHT22;37695;52.960;6.188;2023-03-01T00:16:35;-0.70;99.90
51615;DHT22;37695;52.960;6.188;2023-03-01T00:19:02;-0.70;99.90
51615;DHT22;37695;52.960;6.188;2023-03-01T00:21:28;-0.70;99.90
51615;DHT22;37695;52.960;6.188;2023-03-01T00:23:55;-0.60;99.90
51615;DHT22;37695;52.960;6.188;2023-03-01T00:26:22;-0.70;99.90
51615;DHT22;37695;52.960;6.188;2023-03-01T00:28:48;-0.70;99.90
51615;DHT22;37695;52.960;6.188;2023-03-01T00:31:16;-0.80;99.90
51615;DHT22;37695;52.960;6.188;2023-03-01T00:33:43;-0.90;99.90
51615;DHT22;37695;52.960;6.188;2023-03-01T00:36:09;-0.90;99.90
51615;DHT22;37695;52.960;6.188;2023-03-01T00:38:36;-1.00;99.90
51615;DHT22;37695;52.960;6.188;2023-03-01T00:41:10;-1.00;99.90
51615;DHT22;37695;52.960;6.188;2023-03-01T00:43:37;-1.00;99.90
51615;DHT22;37695;52.960;6.188;2023-03-01T00:46:04;-1.00;99.90
51615;DHT22;37695;52.960;6.188;2023-03-01T00:48:30;-1.10;99.90
51615;DHT22;37695;52.960;6.188;2023-03-01T00:50:55;-1.20;99.90
51615;DHT22;37695;52.960;6.188;2023-03-01T00:53:21;-1.30;99.90
51615;DHT22;37695;52.960;6.188;2023-03-01T00:55:46;-1.30;99.90
51615;DHT22;37695;52.960;6.188;2023-03-01T00:58:12;-1.30;99.90
51615;DHT22;37695;52.960;6.188;2023-03-01T01:00:37;-1.30;99.90
51615;DHT22;37695;52.960;6.188;2023-03-01T01:03:03;-1.30;99.90
51615;DHT22;37695;52.960;6.188;2023-03-01T01:05:28;0.10;99.90
51615;DHT22;37695;52.960;6.188;2023-03-01T01:07:54;-1.20;99.90
51615;DHT22;37695;52.960;6.188;2023-03-01T01:10:20;-1.00;99.90
51615;DHT22;37695;52.960;6.188;2023-03-01T01:12:46;-1.20;99.90
51615;DHT22;37695;52.960;6.188;2023-03-01T01:15:12;-1.20;99.90
51615;DHT22;37695;52.960;6.188;2023-03-01T01:17:39;-1.00;99.90
51615;DHT22;37695;52.960;6.188;2023-03-01T01:20:05;-1.20;99.90
51615;DHT22;37695;52.960;6.188;2023-03-01T01:22:31;-1.20;99.90
51615;DHT22;37695;52.960;6.188;2023-03-01T01:24:57;-1.30;99.90
51615;DHT22;37695;52.960;6.188;2023-03-01T01:27:22;-1.30;99.90
51615;DHT22;37695;52.960;6.188;2023-03-01T01:29:48;-1.30;99.90
51615;DHT22;37695;52.960;6.188;2023-03-01T01:32:13;-1.30;99.90
51615;DHT22;37695;52.960;6.188;2023-03-01T01:34:39;-1.30;99.90
51615;DHT22;37695;52.960;6.188;2023-03-01T01:37:05;-1.40;99.90
51615;DHT22;37695;52.960;6.188;2023-03-01T01:39:34;-1.40;99.90
51615;DHT22;37695;52.960;6.188;2023-03-01T01:42:00;-1.50;99.90
51615;DHT22;37695;52.960;6.188;2023-03-01T01:44:28;-1.50;99.90
51615;DHT22;37695;52.960;6.188;2023-03-01T01:47:18;-1.50;99.90
51615;DHT22;37695;52.960;6.188;2023-03-01T01:49:49;-1.50;99.90
51615;DHT22;37695;52.960;6.188;2023-03-01T01:52:27;-1.60;99.90
51615;DHT22;37695;52.960;6.188;2023-03-01T01:54:59;-1.60;99.90
51615;DHT22;37695;52.960;6.188;2023-03-01T01:57:31;-1.70;99.90
51615;DHT22;37695;52.960;6.188;2023-03-01T02:00:02;-1.70;99.90
51615;DHT22;37695;52.960;6.188;2023-03-01T02:02:28;-1.70;99.90
51615;DHT22;37695;52.960;6.188;2023-03-01T02:05:01;-1.70;99.90
51615;DHT22;37695;52.960;6.188;2023-03-01T02:07:29;-1.70;99.90
51615;DHT22;37695;52.960;6.188;2023-03-01T02:09:55;-1.70;99.90
51615;DHT22;37695;52.960;6.188;2023-03-01T02:12:24;-1.70;99.90
51615;DHT22;37695;52.960;6.188;2023-03-01T02:14:49;-1.70;99.90
51615;DHT22;37695;52.960;6.188;2023-03-01T02:17:17;-1.60;99.90
51615;DHT22;37695;52.960;6.188;2023-03-01T02:22:33;-1.60;99.90
51615;DHT22;37695;52.960;6.188;2023-03-01T02:30:46;-1.50;99.90
51615;DHT22;37695;52.960;6.188;2023-03-01T02:33:33;-1.60;99.90
51615;DHT22;37695;52.960;6.188;2023-03-01T02:36:03;-1.60;99.90
51615;DHT22;37695;52.960;6.188;2023-03-01T02:38:30;-1.70;99.90
51615;DHT22;37695;52.960;6.188;2023-03-01T02:40:57;-1.70;99.90
51615;DHT22;37695;52.960;6.188;2023-03-01T02:43:25;-1.60;99.90
51615;DHT22;37695;52.960;6.188;2023-03-01T02:45:52;-1.70;99.90
51615;DHT22;37695;52.960;6.188;2023-03-01T02:48:19;-1.80;99.90
51615;DHT22;37695;52.960;6.188;2023-03-01T02:51:09;-1.80;99.90
51615;DHT22;37695;52.960;6.188;2023-03-01T02:56:18;-1.80;99.90
51615;DHT22;37695;52.960;6.188;2023-03-01T02:58:44;-1.70;99.90
51615;DHT22;37695;52.960;6.188;2023-03-01T03:01:13;-1.70;99.90
51615;DHT22;37695;52.960;6.188;2023-03-01T03:03:40;-1.80;99.90
51615;DHT22;37695;52.960;6.188;2023-03-01T03:06:06;-1.80;99.90
51615;DHT22;37695;52.960;6.188;2023-03-01T03:08:32;-1.90;99.90
51615;DHT22;37695;52.960;6.188;2023-03-01T03:10:57;-2.00;99.90
51615;DHT22;37695;52.960;6.188;2023-03-01T03:13:23;-2.10;99.90
51615;DHT22;37695;52.960;6.188;2023-03-01T03:15:54;-2.20;99.90
51615;DHT22;37695;52.960;6.188;2023-03-01T03:18:21;-2.20;99.90
51615;DHT22;37695;52.960;6.188;2023-03-01T03:20:47;-2.20;99.90
51615;DHT22;37695;52.960;6.188;2023-03-01T03:23:13;-2.20;99.90
51615;DHT22;37695;52.960;6.188;2023-03-01T03:25:39;-2.20;99.90
51615;DHT22;37695;52.960;6.188;2023-03-01T03:28:06;-2.20;99.90
51615;DHT22;37695;52.960;6.188;2023-03-01T03:30:37;-2.20;99.90
51615;DHT22;37695;52.960;6.188;2023-03-01T03:33:04;-2.30;99.90
51615;DHT22;37695;52.960;6.188;2023-03-01T03:35:32;-2.20;99.90
51615;DHT22;37695;52.960;6.188;2023-03-01T03:38:00;-2.20;99.90
51615;DHT22;37695;52.960;6.188;2023-03-01T03:43:00;-2.20;99.90
51615;DHT22;37695;52.960;6.188;2023-03-01T03:45:26;-2.20;99.90
51615;DHT22;37695;52.960;6.188;2023-03-01T03:47:52;-2.30;99.90
51615;DHT22;37695;52.960;6.188;2023-03-01T03:50:18;-2.30;99.90
51615;DHT22;37695;52.960;6.188;2023-03-01T03:52:44;-2.30;99.90
51615;DHT22;37695;52.960;6.188;2023-03-01T03:55:11;-2.40;99.90
51615;DHT22;37695;52.960;6.188;2023-03-01T03:57:38;-2.50;99.90
51615;DHT22;37695;52.960;6.188;2023-03-01T04:00:07;-2.50;99.90
51615;DHT22;37695;52.960;6.188;2023-03-01T04:02:45;-2.50;99.90
51615;DHT22;37695;52.960;6.188;2023-03-01T04:05:12;-2.60;99.90
51615;DHT22;37695;52.960;6.188;2023-03-01T04:07:40;-2.70;99.90
51615;DHT22;37695;52.960;6.188;2023-03-01T04:10:08;-2.70;99.90
51615;DHT22;37695;52.960;6.188;2023-03-01T04:12:35;-2.70;99.90
51615;DHT22;37695;52.960;6.188;2023-03-01T04:15:02;-2.70;99.90
51615;DHT22;37695;52.960;6.188;2023-03-01T04:17:38;-2.80;99.90
51615;DHT22;37695;52.960;6.188;2023-03-01T04:20:05;-2.70;99.90
51615;DHT22;37695;52.960;6.188;2023-03-01T04:22:31;-2.60;99.90
51615;DHT22;37695;52.960;6.188;2023-03-01T04:24:57;-2.60;99.90
51615;DHT22;37695;52.960;6.188;2023-03-01T04:27:23;-2.70;99.90
51615;DHT22;37695;52.960;6.188;2023-03-01T04:29:49;-2.70;99.90
51615;DHT22;37695;52.960;6.188;2023-03-01T04:32:14;-2.70;99.90
51615;DHT22;37695;52.960;6.188;2023-03-01T04:34:41;-2.70;99.90
51615;DHT22;37695;52.960;6.188;2023-03-01T04:37:07;-2.80;99.90
51615;DHT22;37695;52.960;6.188;2023-03-01T04:39:32;-2.90;99.90
51615;DHT22;37695;52.960;6.188;2023-03-01T04:41:58;-2.90;99.90
51615;DHT22;37695;52.960;6.188;2023-03-01T04:44:23;-3.00;99.90
51615;DHT22;37695;52.960;6.188;2023-03-01T04:46:49;-3.00;99.90
51615;DHT22;37695;52.960;6.188;2023-03-01T04:49:15;-3.00;99.90
51615;DHT22;37695;52.960;6.188;2023-03-01T04:51:41;-3.00;99.90
51615;DHT22;37695;52.960;6.188;2023-03-01T04:54:07;-3.00;99.90
51615;DHT22;37695;52.960;6.188;2023-03-01T04:56:34;-3.00;99.90
51615;DHT22;37695;52.960;6.188;2023-03-01T04:58:59;-3.00;99.90
51615;DHT22;37695;52.960;6.188;2023-03-01T05:01:25;-3.00;99.90
51615;DHT22;37695;52.960;6.188;2023-03-01T05:03:52;-2.90;99.90
51615;DHT22;37695;52.960;6.188;2023-03-01T05:06:18;-2.90;99.90
51615;DHT22;37695;52.960;6.188;2023-03-01T05:08:45;-2.90;99.90
51615;DHT22;37695;52.960;6.188;2023-03-01T05:11:11;-3.00;99.90
51615;DHT22;37695;52.960;6.188;2023-03-01T05:13:38;-3.00;99.90
51615;DHT22;37695;52.960;6.188;2023-03-01T05:16:05;-3.00;99.90
51615;DHT22;37695;52.960;6.188;2023-03-01T05:18:32;-3.10;99.90
51615;DHT22;37695;52.960;6.188;2023-03-01T05:21:04;-3.20;99.90
51615;DHT22;37695;52.960;6.188;2023-03-01T05:23:32;-3.30;99.90
51615;DHT22;37695;52.960;6.188;2023-03-01T05:25:59;-3.30;99.90
51615;DHT22;37695;52.960;6.188;2023-03-01T05:28:26;-3.40;99.90
51615;DHT22;37695;52.960;6.188;2023-03-01T05:30:52;-3.50;99.90
51615;DHT22;37695;52.960;6.188;2023-03-01T05:33:17;-3.50;99.90
51615;DHT22;37695;52.960;6.188;2023-03-01T05:35:45;-3.50;99.90
51615;DHT22;37695;52.960;6.188;2023-03-01T05:38:12;-3.50;99.90
51615;DHT22;37695;52.960;6.188;2023-03-01T05:40:41;-3.40;99.90
51615;DHT22;37695;52.960;6.188;2023-03-01T05:43:07;-3.40;99.90
51615;DHT22;37695;52.960;6.188;2023-03-01T05:45:33;-3.40;99.90
51615;DHT22;37695;52.960;6.188;2023-03-01T05:48:00;-3.40;99.90
51615;DHT22;37695;52.960;6.188;2023-03-01T05:50:28;-3.40;99.90
51615;DHT22;37695;52.960;6.188;2023-03-01T05:53:02;-3.40;99.90
51615;DHT22;37695;52.960;6.188;2023-03-01T05:55:30;-3.50;99.90
51615;DHT22;37695;52.960;6.188;2023-03-01T05:57:59;-3.50;99.90
51615;DHT22;37695;52.960;6.188;2023-03-01T06:00:26;-3.50;99.90
51615;DHT22;37695;52.960;6.188;2023-03-01T06:02:54;-3.50;99.90
51615;DHT22;37695;52.960;6.188;2023-03-01T06:05:19;-3.50;99.90
51615;DHT22;37695;52.960;6.188;2023-03-01T06:07:45;-3.50;99.90
51615;DHT22;37695;52.960;6.188;2023-03-01T06:10:12;-1.80;99.90
51615;DHT22;37695;52.960;6.188;2023-03-01T06:12:39;-3.50;99.90
51615;DHT22;37695;52.960;6.188;2023-03-01T06:15:05;-3.60;99.90
51615;DHT22;37695;52.960;6.188;2023-03-01T06:17:33;-3.60;99.90
51615;DHT22;37695;52.960;6.188;2023-03-01T06:20:08;-3.60;99.90
51615;DHT22;37695;52.960;6.188;2023-03-01T06:22:34;-3.60;99.90
51615;DHT22;37695;52.960;6.188;2023-03-01T06:25:00;-3.60;99.90
51615;DHT22;37695;52.960;6.188;2023-03-01T06:27:26;-3.70;99.90
51615;DHT22;37695;52.960;6.188;2023-03-01T06:29:51;-3.70;99.90
51615;DHT22;37695;52.960;6.188;2023-03-01T06:32:17;-3.70;99.90
51615;DHT22;37695;52.960;6.188;2023-03-01T06:34:43;-3.80;99.90
51615;DHT22;37695;52.960;6.188;2023-03-01T06:37:08;-2.60;99.90
51615;DHT22;37695;52.960;6.188;2023-03-01T06:39:34;-3.80;99.90
51615;DHT22;37695;52.960;6.188;2023-03-01T06:41:59;-3.70;99.90
51615;DHT22;37695;52.960;6.188;2023-03-01T06:44:26;-3.60;99.90
51615;DHT22;37695;52.960;6.188;2023-03-01T06:46:52;-3.50;99.90
51615;DHT22;37695;52.960;6.188;2023-03-01T06:49:17;-3.50;99.90
51615;DHT22;37695;52.960;6.188;2023-03-01T06:51:44;-3.50;99.90
51615;DHT22;37695;52.960;6.188;2023-03-01T06:54:09;-3.50;99.90
51615;DHT22;37695;52.960;6.188;2023-03-01T06:56:35;-3.50;99.90
51615;DHT22;37695;52.960;6.188;2023-03-01T06:59:01;-3.50;99.90
51615;DHT22;37695;52.960;6.188;2023-03-01T07:01:28;-3.40;99.90
51615;DHT22;37695;52.960;6.188;2023-03-01T07:03:53;-3.40;99.90
51615;DHT22;37695;52.960;6.188;2023-03-01T07:06:19;-2.90;99.90
51615;DHT22;37695;52.960;6.188;2023-03-01T07:08:45;-3.30;99.90
51615;DHT22;37695;52.960;6.188;2023-03-01T07:11:10;-3.30;99.90
51615;DHT22;37695;52.960;6.188;2023-03-01T07:13:36;-3.20;99.90
51615;DHT22;37695;52.960;6.188;2023-03-01T07:16:01;-3.20;99.90
51615;DHT22;37695;52.960;6.188;2023-03-01T07:18:27;-3.20;99.90
51615;DHT22;37695;52.960;6.188;2023-03-01T07:20:53;-3.10;99.90
51615;DHT22;37695;52.960;6.188;2023-03-01T07:23:18;-3.10;99.90
51615;DHT22;37695;52.960;6.188;2023-03-01T07:25:44;-3.10;99.90
51615;DHT22;37695;52.960;6.188;2023-03-01T07:28:09;-2.90;99.90
51615;DHT22;37695;52.960;6.188;2023-03-01T07:30:35;-2.90;99.90
51615;DHT22;37695;52.960;6.188;2023-03-01T07:33:00;-2.90;99.90
51615;DHT22;37695;52.960;6.188;2023-03-01T07:35:27;-2.90;99.90
51615;DHT22;37695;52.960;6.188;2023-03-01T07:37:52;-2.80;99.90
51615;DHT22;37695;52.960;6.188;2023-03-01T07:40:18;-2.70;99.90
51615;DHT22;37695;52.960;6.188;2023-03-01T07:42:44;-2.60;99.90
51615;DHT22;37695;52.960;6.188;2023-03-01T07:45:10;-2.50;99.90
51615;DHT22;37695;52.960;6.188;2023-03-01T07:47:36;-2.40;99.90
51615;DHT22;37695;52.960;6.188;2023-03-01T07:50:02;-2.30;99.90
51615;DHT22;37695;52.960;6.188;2023-03-01T07:52:29;-2.10;99.90
51615;DHT22;37695;52.960;6.188;2023-03-01T07:54:56;-1.90;99.90
51615;DHT22;37695;52.960;6.188;2023-03-01T07:57:22;-1.80;99.90
51615;DHT22;37695;52.960;6.188;2023-03-01T07:59:47;-1.70;99.90
51615;DHT22;37695;52.960;6.188;2023-03-01T08:02:13;-1.60;99.90
51615;DHT22;37695;52.960;6.188;2023-03-01T08:04:40;-1.50;99.90
51615;DHT22;37695;52.960;6.188;2023-03-01T08:07:06;-1.40;99.90
51615;DHT22;37695;52.960;6.188;2023-03-01T08:09:34;-1.30;99.90
51615;DHT22;37695;52.960;6.188;2023-03-01T08:12:00;-1.10;99.90
51615;DHT22;37695;52.960;6.188;2023-03-01T08:14:26;-0.90;99.90
51615;DHT22;37695;52.960;6.188;2023-03-01T08:16:51;-0.80;99.90
51615;DHT22;37695;52.960;6.188;2023-03-01T08:19:17;-0.70;99.90
51615;DHT22;37695;52.960;6.188;2023-03-01T08:21:43;-0.50;99.90
51615;DHT22;37695;52.960;6.188;2023-03-01T08:24:08;-0.40;99.90
51615;DHT22;37695;52.960;6.188;2023-03-01T08:26:36;-0.30;99.90
51615;DHT22;37695;52.960;6.188;2023-03-01T08:29:02;-0.10;99.90
51615;DHT22;37695;52.960;6.188;2023-03-01T08:31:38;0.00;99.90
51615;DHT22;37695;52.960;6.188;2023-03-01T08:34:09;0.40;99.90
51615;DHT22;37695;52.960;6.188;2023-03-01T08:36:38;0.30;99.90
51615;DHT22;37695;52.960;6.188;2023-03-01T08:39:04;0.30;99.90
51615;DHT22;37695;52.960;6.188;2023-03-01T08:41:30;0.40;99.90
51615;DHT22;37695;52.960;6.188;2023-03-01T08:43:56;0.50;99.90
51615;DHT22;37695;52.960;6.188;2023-03-01T08:46:30;0.60;99.90
51615;DHT22;37695;52.960;6.188;2023-03-01T08:48:55;0.80;99.90
51615;DHT22;37695;52.960;6.188;2023-03-01T08:51:22;1.20;99.90
51615;DHT22;37695;52.960;6.188;2023-03-01T08:53:48;1.10;99.90
51615;DHT22;37695;52.960;6.188;2023-03-01T08:56:14;1.20;99.90
51615;DHT22;37695;52.960;6.188;2023-03-01T08:58:44;1.50;99.90
51615;DHT22;37695;52.960;6.188;2023-03-01T09:01:11;1.50;99.90
51615;DHT22;37695;52.960;6.188;2023-03-01T09:03:37;1.60;99.90
51615;DHT22;37695;52.960;6.188;2023-03-01T09:06:04;1.70;99.90
51615;DHT22;37695;52.960;6.188;2023-03-01T09:08:30;1.80;99.90
51615;DHT22;37695;52.960;6.188;2023-03-01T09:10:56;1.90;99.90
51615;DHT22;37695;52.960;6.188;2023-03-01T09:13:22;2.30;99.90
51615;DHT22;37695;52.960;6.188;2023-03-01T09:15:50;2.20;99.90
51615;DHT22;37695;52.960;6.188;2023-03-01T09:18:16;2.20;99.90
51615;DHT22;37695;52.960;6.188;2023-03-01T09:20:42;2.30;99.90
51615;DHT22;37695;52.960;6.188;2023-03-01T09:23:07;2.50;99.90
51615;DHT22;37695;52.960;6.188;2023-03-01T09:25:34;2.60;99.90
51615;DHT22;37695;52.960;6.188;2023-03-01T09:28:00;2.70;99.90
51615;DHT22;37695;52.960;6.188;2023-03-01T09:30:25;2.70;99.90
51615;DHT22;37695;52.960;6.188;2023-03-01T09:32:51;2.80;99.90
51615;DHT22;37695;52.960;6.188;2023-03-01T09:35:17;3.00;99.90
51615;DHT22;37695;52.960;6.188;2023-03-01T09:37:44;3.10;99.90
51615;DHT22;37695;52.960;6.188;2023-03-01T09:40:23;3.10;99.90
51615;DHT22;37695;52.960;6.188;2023-03-01T09:42:59;3.20;99.90
51615;DHT22;37695;52.960;6.188;2023-03-01T09:45:39;3.30;99.90
51615;DHT22;37695;52.960;6.188;2023-03-01T09:48:15;3.40;99.90
51615;DHT22;37695;52.960;6.188;2023-03-01T09:50:43;3.50;99.90
51615;DHT22;37695;52.960;6.188;2023-03-01T09:53:16;3.60;99.90
51615;DHT22;37695;52.960;6.188;2023-03-01T09:55:49;3.70;99.90
51615;DHT22;37695;52.960;6.188;2023-03-01T10:01:30;3.90;99.90
51615;DHT22;37695;52.960;6.188;2023-03-01T10:06:51;4.20;99.90
51615;DHT22;37695;52.960;6.188;2023-03-01T10:09:23;4.30;99.90
51615;DHT22;37695;52.960;6.188;2023-03-01T10:11:52;4.40;99.90
51615;DHT22;37695;52.960;6.188;2023-03-01T10:14:33;4.60;99.90
51615;DHT22;37695;52.960;6.188;2023-03-01T10:17:11;4.70;99.90
51615;DHT22;37695;52.960;6.188;2023-03-01T10:19:46;4.80;99.90
51615;DHT22;37695;52.960;6.188;2023-03-01T10:24:42;5.00;99.90
51615;DHT22;37695;52.960;6.188;2023-03-01T10:27:17;5.10;99.90
51615;DHT22;37695;52.960;6.188;2023-03-01T10:30:13;5.20;99.90
51615;DHT22;37695;52.960;6.188;2023-03-01T10:32:42;5.30;99.90
51615;DHT22;37695;52.960;6.188;2023-03-01T10:35:43;5.40;99.90
51615;DHT22;37695;52.960;6.188;2023-03-01T10:38:11;5.50;99.90
51615;DHT22;37695;52.960;6.188;2023-03-01T10:43:15;5.70;99.90
51615;DHT22;37695;52.960;6.188;2023-03-01T10:45:40;5.80;99.90
51615;DHT22;37695;52.960;6.188;2023-03-01T10:48:18;5.80;99.90
51615;DHT22;37695;52.960;6.188;2023-03-01T10:51:05;5.90;99.90
51615;DHT22;37695;52.960;6.188;2023-03-01T10:53:48;6.00;99.90
51615;DHT22;37695;52.960;6.188;2023-03-01T10:56:15;6.10;99.90
51615;DHT22;37695;52.960;6.188;2023-03-01T11:06:32;6.40;99.90
51615;DHT22;37695;52.960;6.188;2023-03-01T11:09:22;6.30;99.90
51615;DHT22;37695;52.960;6.188;2023-03-01T11:11:56;6.40;99.90
51615;DHT22;37695;52.960;6.188;2023-03-01T11:14:38;6.40;99.90
51615;DHT22;37695;52.960;6.188;2023-03-01T11:17:15;6.40;99.90
51615;DHT22;37695;52.960;6.188;2023-03-01T11:19:42;6.40;99.90
51615;DHT22;37695;52.960;6.188;2023-03-01T11:22:13;6.50;99.90
51615;DHT22;37695;52.960;6.188;2023-03-01T11:24:49;6.60;99.90
51615;DHT22;37695;52.960;6.188;2023-03-01T11:27:24;6.60;99.90
51615;DHT22;37695;52.960;6.188;2023-03-01T11:32:35;6.80;99.90
51615;DHT22;37695;52.960;6.188;2023-03-01T11:35:25;6.80;99.90
51615;DHT22;37695;52.960;6.188;2023-03-01T11:43:44;7.00;99.90
51615;DHT22;37695;52.960;6.188;2023-03-01T11:52:18;7.10;99.90
51615;DHT22;37695;52.960;6.188;2023-03-01T12:20:04;7.40;99.90
51615;DHT22;37695;52.960;6.188;2023-03-01T12:22:57;7.40;99.90
51615;DHT22;37695;52.960;6.188;2023-03-01T12:25:46;7.40;99.90
51615;DHT22;37695;52.960;6.188;2023-03-01T12:31:24;7.40;99.90
51615;DHT22;37695;52.960;6.188;2023-03-01T12:34:32;7.40;99.90
51615;DHT22;37695;52.960;6.188;2023-03-01T12:40:01;7.40;99.90
51615;DHT22;37695;52.960;6.188;2023-03-01T12:42:41;7.30;99.90
51615;DHT22;37695;52.960;6.188;2023-03-01T12:45:44;7.30;99.90
51615;DHT22;37695;52.960;6.188;2023-03-01T12:51:02;7.40;99.90
51615;DHT22;37695;52.960;6.188;2023-03-01T12:53:32;7.30;99.90
51615;DHT22;37695;52.960;6.188;2023-03-01T12:56:02;7.40;99.90
51615;DHT22;37695;52.960;6.188;2023-03-01T12:58:34;7.50;99.90
51615;DHT22;37695;52.960;6.188;2023-03-01T13:01:09;7.50;99.90
51615;DHT22;37695;52.960;6.188;2023-03-01T13:06:34;7.60;99.90
51615;DHT22;37695;52.960;6.188;2023-03-01T13:09:23;7.60;99.90
51615;DHT22;37695;52.960;6.188;2023-03-01T13:11:50;7.60;99.90
51615;DHT22;37695;52.960;6.188;2023-03-01T13:16:54;7.70;99.90
51615;DHT22;37695;52.960;6.188;2023-03-01T13:19:25;7.60;99.90
51615;DHT22;37695;52.960;6.188;2023-03-01T13:21:53;7.70;99.90
51615;DHT22;37695;52.960;6.188;2023-03-01T13:24:28;7.70;99.90
51615;DHT22;37695;52.960;6.188;2023-03-01T13:32:27;7.80;99.90
51615;DHT22;37695;52.960;6.188;2023-03-01T13:37:45;7.70;99.90
51615;DHT22;37695;52.960;6.188;2023-03-01T13:43:34;7.80;99.90
51615;DHT22;37695;52.960;6.188;2023-03-01T13:46:07;7.80;99.90
51615;DHT22;37695;52.960;6.188;2023-03-01T13:48:34;7.90;99.90
51615;DHT22;37695;52.960;6.188;2023-03-01T13:51:05;7.90;99.90
51615;DHT22;37695;52.960;6.188;2023-03-01T13:53:44;8.00;99.90
51615;DHT22;37695;52.960;6.188;2023-03-01T13:56:24;8.00;99.90
51615;DHT22;37695;52.960;6.188;2023-03-01T13:58:55;8.10;99.90
51615;DHT22;37695;52.960;6.188;2023-03-01T14:01:32;8.10;99.90
51615;DHT22;37695;52.960;6.188;2023-03-01T14:03:58;8.10;99.90
51615;DHT22;37695;52.960;6.188;2023-03-01T14:06:26;8.10;99.90
51615;DHT22;37695;52.960;6.188;2023-03-01T14:09:20;8.10;99.90
51615;DHT22;37695;52.960;6.188;2023-03-01T14:17:40;8.30;99.90
51615;DHT22;37695;52.960;6.188;2023-03-01T14:20:20;8.40;99.90
51615;DHT22;37695;52.960;6.188;2023-03-01T14:22:48;8.30;99.90
51615;DHT22;37695;52.960;6.188;2023-03-01T14:28:00;8.30;99.90
51615;DHT22;37695;52.960;6.188;2023-03-01T14:30:41;8.30;99.90
51615;DHT22;37695;52.960;6.188;2023-03-01T14:33:30;8.40;99.90
51615;DHT22;37695;52.960;6.188;2023-03-01T14:40:59;8.50;99.90
51615;DHT22;37695;52.960;6.188;2023-03-01T14:43:27;8.50;99.90
51615;DHT22;37695;52.960;6.188;2023-03-01T14:45:54;8.40;99.90
51615;DHT22;37695;52.960;6.188;2023-03-01T14:48:20;8.40;99.90
51615;DHT22;37695;52.960;6.188;2023-03-01T14:50:46;8.40;99.90
51615;DHT22;37695;52.960;6.188;2023-03-01T14:53:30;8.40;99.90
51615;DHT22;37695;52.960;6.188;2023-03-01T14:56:00;8.40;99.90
51615;DHT22;37695;52.960;6.188;2023-03-01T14:58:32;8.40;99.90
51615;DHT22;37695;52.960;6.188;2023-03-01T15:01:00;8.40;99.90
51615;DHT22;37695;52.960;6.188;2023-03-01T15:05:55;8.30;99.90
51615;DHT22;37695;52.960;6.188;2023-03-01T15:08:24;8.20;99.90
51615;DHT22;37695;52.960;6.188;2023-03-01T15:11:15;8.20;99.90
51615;DHT22;37695;52.960;6.188;2023-03-01T15:13:42;8.20;99.90
51615;DHT22;37695;52.960;6.188;2023-03-01T15:16:11;8.20;99.90
51615;DHT22;37695;52.960;6.188;2023-03-01T15:18:50;8.20;99.90
51615;DHT22;37695;52.960;6.188;2023-03-01T15:21:22;8.20;99.90
51615;DHT22;37695;52.960;6.188;2023-03-01T15:23:58;8.20;99.90
51615;DHT22;37695;52.960;6.188;2023-03-01T15:26:37;8.20;99.90
51615;DHT22;37695;52.960;6.188;2023-03-01T15:29:03;8.10;99.90
51615;DHT22;37695;52.960;6.188;2023-03-01T15:31:36;8.10;99.90
51615;DHT22;37695;52.960;6.188;2023-03-01T15:36:52;8.00;99.90
51615;DHT22;37695;52.960;6.188;2023-03-01T15:47:47;8.00;99.90
51615;DHT22;37695;52.960;6.188;2023-03-01T15:50:24;8.00;99.90
51615;DHT22;37695;52.960;6.188;2023-03-01T15:52:51;8.00;99.90
51615;DHT22;37695;52.960;6.188;2023-03-01T15:55:22;8.00;99.90
51615;DHT22;37695;52.960;6.188;2023-03-01T15:57:48;8.20;99.90
51615;DHT22;37695;52.960;6.188;2023-03-01T16:00:15;8.50;99.90
51615;DHT22;37695;52.960;6.188;2023-03-01T16:02:42;8.70;99.90
51615;DHT22;37695;52.960;6.188;2023-03-01T16:05:18;8.70;99.90
51615;DHT22;37695;52.960;6.188;2023-03-01T16:07:44;8.60;99.90
51615;DHT22;37695;52.960;6.188;2023-03-01T16:10:10;8.70;99.90
51615;DHT22;37695;52.960;6.188;2023-03-01T16:12:35;8.70;99.90
51615;DHT22;37695;52.960;6.188;2023-03-01T16:15:01;8.80;99.90
51615;DHT22;37695;52.960;6.188;2023-03-01T16:17:27;8.80;99.90
51615;DHT22;37695;52.960;6.188;2023-03-01T16:19:53;8.70;99.90
51615;DHT22;37695;52.960;6.188;2023-03-01T16:22:18;8.50;99.90
51615;DHT22;37695;52.960;6.188;2023-03-01T16:24:50;8.50;99.90
51615;DHT22;37695;52.960;6.188;2023-03-01T16:27:15;8.60;99.90
51615;DHT22;37695;52.960;6.188;2023-03-01T16:29:41;8.40;99.90
51615;DHT22;37695;52.960;6.188;2023-03-01T16:32:06;8.20;99.90
51615;DHT22;37695;52.960;6.188;2023-03-01T16:34:32;8.10;99.90
51615;DHT22;37695;52.960;6.188;2023-03-01T16:36:57;8.10;99.90
51615;DHT22;37695;52.960;6.188;2023-03-01T16:39:23;8.10;99.90
51615;DHT22;37695;52.960;6.188;2023-03-01T16:41:48;8.20;99.90
51615;DHT22;37695;52.960;6.188;2023-03-01T16:44:15;8.20;99.90
51615;DHT22;37695;52.960;6.188;2023-03-01T16:46:41;8.20;99.90
51615;DHT22;37695;52.960;6.188;2023-03-01T16:49:07;8.20;99.90
51615;DHT22;37695;52.960;6.188;2023-03-01T16:51:32;8.20;99.90
51615;DHT22;37695;52.960;6.188;2023-03-01T16:54:00;8.10;99.90
51615;DHT22;37695;52.960;6.188;2023-03-01T16:56:25;7.90;99.90
51615;DHT22;37695;52.960;6.188;2023-03-01T16:58:51;7.70;99.90
51615;DHT22;37695;52.960;6.188;2023-03-01T17:01:18;7.30;99.90
51615;DHT22;37695;52.960;6.188;2023-03-01T17:03:45;7.00;99.90
51615;DHT22;37695;52.960;6.188;2023-03-01T17:06:14;6.80;99.90
51615;DHT22;37695;52.960;6.188;2023-03-01T17:08:40;6.50;99.90
51615;DHT22;37695;52.960;6.188;2023-03-01T17:11:15;6.20;99.90
51615;DHT22;37695;52.960;6.188;2023-03-01T17:13:41;6.10;99.90
51615;DHT22;37695;52.960;6.188;2023-03-01T17:16:10;5.80;99.90
51615;DHT22;37695;52.960;6.188;2023-03-01T17:18:36;5.70;99.90
51615;DHT22;37695;52.960;6.188;2023-03-01T17:21:02;5.50;99.90
51615;DHT22;37695;52.960;6.188;2023-03-01T17:23:29;5.40;99.90
51615;DHT22;37695;52.960;6.188;2023-03-01T17:25:55;5.30;99.90
51615;DHT22;37695;52.960;6.188;2023-03-01T17:28:23;5.20;99.90
51615;DHT22;37695;52.960;6.188;2023-03-01T17:30:49;5.00;99.90
51615;DHT22;37695;52.960;6.188;2023-03-01T17:33:16;4.90;99.90
51615;DHT22;37695;52.960;6.188;2023-03-01T17:35:41;4.80;99.90
51615;DHT22;37695;52.960;6.188;2023-03-01T17:38:07;4.80;99.90
51615;DHT22;37695;52.960;6.188;2023-03-01T17:40:33;4.70;99.90
51615;DHT22;37695;52.960;6.188;2023-03-01T17:43:00;4.60;99.90
51615;DHT22;37695;52.960;6.188;2023-03-01T17:45:26;4.60;99.90
51615;DHT22;37695;52.960;6.188;2023-03-01T17:47:51;4.50;99.90
51615;DHT22;37695;52.960;6.188;2023-03-01T17:50:17;4.50;99.90
51615;DHT22;37695;52.960;6.188;2023-03-01T17:52:42;4.40;99.90
51615;DHT22;37695;52.960;6.188;2023-03-01T17:55:09;4.30;99.90
51615;DHT22;37695;52.960;6.188;2023-03-01T17:57:38;4.30;99.90